Terminal Aerodrome Forecast
Issued by NWS

Home | Current Version | Previous Version | Text Only | Print | Product List | Glossary On
Versions: 1 2 3 4 5 6 7 8 9 10 11 12 13 14 15 16 17 18 19 20 21 22
000
FTUS43 KDVN 080540
TAFCID
TAF
KCID 080540Z 0806/0906 23008KT P6SM BKN080
     FM082000 21011KT P6SM BKN040 PROB30 0904/0906 5SM -SN BR
      BKN025=

USA.gov is the U.S. government's official web portal to all federal, state and local government web resources and services.